Lunamar — 5BNV2 — position and weather

sailwx.info

Track history (hours):
 
Tides and Currents Weather Stations Pressure Air Temp Water Temp Dewpoint Dewpoint Depression Visibility Wind Speed Wind Dir Waves Ship Positions

Lunamar

Last reported at 2016-Aug-29 03:20 UTC. Time now 2016-Aug-29 12:59 UTC.
Position N 48°57' W 005°06'.

Length 90 m; draft 3.6 m.

Type: Cargo ship. MMSI: 212762000.

Date/timePositionNaut miles runAvg speedWind from/ knotsBaromVisibWave heightAir tempDewpointWater temp
2016-Aug-29 03:20N 48°57' W 005°06'1411.0
2016-Aug-29 02:04N 48°50' W 005°25'  
2016-Aug-25 12:33N 40°18' W 008°56'24 0.8
2016-Aug-24 07:33N 40°39' W 008°42'5 5.3
2016-Aug-24 06:33N 40°41' W 008°49'14 7.0
2016-Aug-24 04:33N 40°53' W 008°56'6 5.2
2016-Aug-24 03:25N 40°59' W 008°59'5 4.9
2016-Aug-24 02:30N 41°03' W 009°01'5 5.5
2016-Aug-24 01:33N 41°08' W 009°04'5 5.3
2016-Aug-24 00:33N 41°12' W 009°08'5 5.0
2016-Aug-23 23:32N 41°17' W 009°11'5 5.1
2016-Aug-23 22:28N 41°22' W 009°14'5 5.1
2016-Aug-23 21:33N 41°26' W 009°16'5 5.1
2016-Aug-23 20:33N 41°31' W 009°18'5 5.0
2016-Aug-23 19:33N 41°36' W 009°20'5 5.3
2016-Aug-23 18:33N 41°41' W 009°23'  
2016-Aug-20 14:21N 49°47' W 003°26'6 7.0
2016-Aug-20 13:33N 49°50' W 003°18'8 6.9
2016-Aug-20 12:28N 49°54' W 003°08'6 6.3
2016-Aug-20 11:33N 49°57' W 003°01'5 5.4
2016-Aug-20 10:33N 49°59' W 002°53'4 4.2
2016-Aug-20 09:33N 50°01' W 002°47'3 3.2
2016-Aug-20 08:33N 50°01' W 002°42'92 7.0
2016-Aug-19 19:17N 50°28' W 000°24'6 8.6
2016-Aug-19 18:33N 50°29' W 000°14'10 9.9
2016-Aug-19 17:33N 50°32' E 000°01'1110.6
2016-Aug-19 16:33N 50°35' E 000°17'41 9.4
2016-Aug-19 12:11N 50°56' E 001°13'5 7.6
2016-Aug-19 11:33N 50°59' E 001°19'8 8.5
2016-Aug-19 10:33N 51°05' E 001°29'1111.2
2016-Aug-19 09:33N 51°12' E 001°42'1312.6
2016-Aug-19 08:33N 51°23' E 001°54'1212.3
2016-Aug-19 07:33N 51°33' E 002°05'1111.4
2016-Aug-19 06:33N 51°42' E 002°16'1010.3
2016-Aug-19 05:33N 51°49' E 002°27'9 9.3
2016-Aug-19 04:33N 51°56' E 002°37'9 8.7
2016-Aug-19 03:33N 52°03' E 002°47'  
Track history (hours):
 
Tides and Currents Weather Stations Pressure Air Temp Water Temp Dewpoint Dewpoint Depression Visibility Wind Speed Wind Dir Waves Ship Positions

Lunamar

Last reported at 2016-Aug-29 03:20 UTC. Time now 2016-Aug-29 12:59 UTC.
Position N 48°57' W 005°06'.

Length 90 m; draft 3.6 m.

Type: Cargo ship. MMSI: 212762000.

Date/timePositionNaut miles runAvg speedWind from/ knotsBaromVisibWave heightAir tempDewpointWater temp
2016-Aug-29 03:20N 48°57' W 005°06'1411.0
2016-Aug-29 02:04N 48°50' W 005°25'  
2016-Aug-25 12:33N 40°18' W 008°56'24 0.8
2016-Aug-24 07:33N 40°39' W 008°42'5 5.3
2016-Aug-24 06:33N 40°41' W 008°49'14 7.0
2016-Aug-24 04:33N 40°53' W 008°56'6 5.2
2016-Aug-24 03:25N 40°59' W 008°59'5 4.9
2016-Aug-24 02:30N 41°03' W 009°01'5 5.5
2016-Aug-24 01:33N 41°08' W 009°04'5 5.3
2016-Aug-24 00:33N 41°12' W 009°08'5 5.0
2016-Aug-23 23:32N 41°17' W 009°11'5 5.1
2016-Aug-23 22:28N 41°22' W 009°14'5 5.1
2016-Aug-23 21:33N 41°26' W 009°16'5 5.1
2016-Aug-23 20:33N 41°31' W 009°18'5 5.0
2016-Aug-23 19:33N 41°36' W 009°20'5 5.3
2016-Aug-23 18:33N 41°41' W 009°23'  
2016-Aug-20 14:21N 49°47' W 003°26'6 7.0
2016-Aug-20 13:33N 49°50' W 003°18'8 6.9
2016-Aug-20 12:28N 49°54' W 003°08'6 6.3
2016-Aug-20 11:33N 49°57' W 003°01'5 5.4
2016-Aug-20 10:33N 49°59' W 002°53'4 4.2
2016-Aug-20 09:33N 50°01' W 002°47'3 3.2
2016-Aug-20 08:33N 50°01' W 002°42'92 7.0
2016-Aug-19 19:17N 50°28' W 000°24'6 8.6
2016-Aug-19 18:33N 50°29' W 000°14'10 9.9
2016-Aug-19 17:33N 50°32' E 000°01'1110.6
2016-Aug-19 16:33N 50°35' E 000°17'41 9.4
2016-Aug-19 12:11N 50°56' E 001°13'5 7.6
2016-Aug-19 11:33N 50°59' E 001°19'8 8.5
2016-Aug-19 10:33N 51°05' E 001°29'1111.2
2016-Aug-19 09:33N 51°12' E 001°42'1312.6
2016-Aug-19 08:33N 51°23' E 001°54'1212.3
2016-Aug-19 07:33N 51°33' E 002°05'1111.4
2016-Aug-19 06:33N 51°42' E 002°16'1010.3
2016-Aug-19 05:33N 51°49' E 002°27'9 9.3
2016-Aug-19 04:33N 51°56' E 002°37'9 8.7
2016-Aug-19 03:33N 52°03' E 002°47'  

Dump ship's entire track history